Time;durP1;ratioP1;P1;durP2;ratioP2;P2;SDS_P1;SDS_P2;PMS_P1;PMS_P2;Temp;Humidity;BMP_temperature;BMP_pressure;BME280_temperature;BME280_humidity;BME280_pressure;Samples;Min_cycle;Max_cycle;Signal;HPM_P1;HPM_P2
2024/02/23 00:01:00;;;;;;;2.95;0.70;;;;;;;;;;2056086;28;20394;-54
2024/02/23 00:02:02;;;;;;;2.03;0.40;;;;;;;;;;2056122;28;20027;-53
2024/02/23 00:03:03;;;;;;;4.22;0.55;;;;;;;;;;2056912;28;20054;-55
2024/02/23 00:04:06;;;;;;;2.85;0.65;;;;;;;;;;2056116;28;20023;-54
2024/02/23 00:05:07;;;;;;;1.45;0.32;;;;;;;;;;2056846;28;20077;-53
2024/02/23 00:06:09;;;;;;;1.20;0.45;;;;;;;;;;2057259;28;20038;-52
2024/02/23 00:07:10;;;;;;;3.08;0.70;;;;;;;;;;2057022;28;20018;-51
2024/02/23 00:08:11;;;;;;;3.78;0.85;;;;;;;;;;2056439;28;20091;-54
2024/02/23 00:09:12;;;;;;;3.97;0.50;;;;;;;;;;2062035;28;20022;-53
2024/02/23 00:10:13;;;;;;;3.00;0.40;;;;;;;;;;2057190;28;20414;-51
2024/02/23 00:11:15;;;;;;;2.95;0.77;;;;;;;;;;2056691;28;20038;-48
2024/02/23 00:12:16;;;;;;;2.20;0.65;;;;;;;;;;2056100;28;20023;-48
2024/02/23 00:13:17;;;;;;;2.83;0.68;;;;;;;;;;2056082;28;20129;-48
2024/02/23 00:14:18;;;;;;;2.70;0.47;;;;;;;;;;2059680;28;20022;-49
2024/02/23 00:15:20;;;;;;;1.38;0.32;;;;;;;;;;2059655;28;20516;-47
2024/02/23 00:16:21;;;;;;;3.42;0.50;;;;;;;;;;2056275;28;20027;-48
2024/02/23 00:17:23;;;;;;;3.55;0.68;;;;;;;;;;2064309;28;20026;-46
2024/02/23 00:18:24;;;;;;;2.55;0.63;;;;;;;;;;2070137;28;20026;-49
2024/02/23 00:19:25;;;;;;;5.25;0.60;;;;;;;;;;2056945;28;20023;-47
2024/02/23 00:20:26;;;;;;;2.45;0.70;;;;;;;;;;2056745;28;20433;-47
2024/02/23 00:21:28;;;;;;;2.72;0.60;;;;;;;;;;2055996;28;20069;-48
2024/02/23 00:22:29;;;;;;;3.03;0.73;;;;;;;;;;2062639;28;20581;-47
2024/02/23 00:23:30;;;;;;;3.28;0.63;;;;;;;;;;2072023;28;20025;-48
2024/02/23 00:24:31;;;;;;;2.85;0.55;;;;;;;;;;2056798;28;20033;-48
2024/02/23 00:25:32;;;;;;;4.63;0.85;;;;;;;;;;2055103;28;20074;-48
2024/02/23 00:26:34;;;;;;;1.92;0.50;;;;;;;;;;2055997;28;20054;-47
2024/02/23 00:27:35;;;;;;;3.75;0.55;;;;;;;;;;2056878;28;20011;-47
2024/02/23 00:28:36;;;;;;;1.90;0.65;;;;;;;;;;2056765;28;20069;-47
2024/02/23 00:29:38;;;;;;;2.92;0.63;;;;;;;;;;2054114;28;20141;-49
2024/02/23 00:30:39;;;;;;;3.80;0.50;;;;;;;;;;2056094;28;20118;-47
2024/02/23 00:31:45;;;;;;;3.10;0.73;;;;;;;;;;2056132;28;20027;-53
2024/02/23 00:32:46;;;;;;;4.22;0.68;;;;;;;;;;2063151;28;20026;-51
2024/02/23 00:33:47;;;;;;;4.95;1.15;;;;;;;;;;2056704;28;20026;-52
2024/02/23 00:34:48;;;;;;;4.13;0.90;;;;;;;;;;2056701;28;20451;-50
2024/02/23 00:35:50;;;;;;;1.88;0.50;;;;;;;;;;2056598;28;20031;-51
2024/02/23 00:36:51;;;;;;;3.45;0.57;;;;;;;;;;2056542;28;20026;-54
2024/02/23 00:37:52;;;;;;;2.38;0.63;;;;;;;;;;2055819;28;20027;-47
2024/02/23 00:38:53;;;;;;;4.10;1.02;;;;;;;;;;2054491;28;20106;-48
2024/02/23 00:39:55;;;;;;;2.30;0.52;;;;;;;;;;2056416;28;20043;-49
2024/02/23 00:40:56;;;;;;;2.75;0.50;;;;;;;;;;2055859;28;20044;-48
2024/02/23 00:41:57;;;;;;;4.10;0.85;;;;;;;;;;2055695;28;20402;-48
2024/02/23 00:43:00;;;;;;;2.88;0.88;;;;;;;;;;2056329;28;20112;-48
2024/02/23 00:44:01;;;;;;;3.00;0.80;;;;;;;;;;2056385;28;20023;-47
2024/02/23 00:45:03;;;;;;;4.25;0.77;;;;;;;;;;2056610;28;20080;-47
2024/02/23 00:46:04;;;;;;;1.77;0.50;;;;;;;;;;2056111;28;20110;-47
2024/02/23 00:47:06;;;;;;;3.13;1.30;;;;;;;;;;2056648;28;20390;-55
2024/02/23 00:48:07;;;;;;;5.68;0.82;;;;;;;;;;2055924;28;20019;-52
2024/02/23 00:49:08;;;;;;;3.85;0.80;;;;;;;;;;2055903;28;20498;-54
2024/02/23 00:50:10;;;;;;;4.40;1.00;;;;;;;;;;2056750;28;20073;-52
2024/02/23 00:51:11;;;;;;;3.88;0.80;;;;;;;;;;2056198;28;20438;-54
2024/02/23 00:52:13;;;;;;;3.72;0.90;;;;;;;;;;2056131;28;20023;-54
2024/02/23 00:53:14;;;;;;;3.15;0.82;;;;;;;;;;2056621;28;20394;-48
2024/02/23 00:54:15;;;;;;;1.98;0.50;;;;;;;;;;2055052;28;20015;-48
2024/02/23 00:55:17;;;;;;;4.78;0.80;;;;;;;;;;2052311;28;20031;-48
2024/02/23 00:56:18;;;;;;;4.35;0.95;;;;;;;;;;2048418;28;20023;-47
2024/02/23 00:57:25;;;;;;;3.08;0.65;;;;;;;;;;2052160;28;20026;-48
2024/02/23 00:58:27;;;;;;;4.60;1.15;;;;;;;;;;2056376;28;20163;-48
2024/02/23 00:59:28;;;;;;;3.90;0.82;;;;;;;;;;2056246;28;20022;-48
2024/02/23 01:00:29;;;;;;;2.35;0.88;;;;;;;;;;2056452;28;20018;-46
2024/02/23 01:01:32;;;;;;;2.38;0.40;;;;;;;;;;2056414;28;20034;-47
2024/02/23 01:02:33;;;;;;;3.60;1.00;;;;;;;;;;2055885;28;20092;-47
2024/02/23 01:03:34;;;;;;;4.75;0.98;;;;;;;;;;2063049;28;20366;-47
2024/02/23 01:04:35;;;;;;;5.53;0.85;;;;;;;;;;2071393;28;20022;-46
2024/02/23 01:05:38;;;;;;;3.38;0.70;;;;;;;;;;2056501;28;20098;-48
2024/02/23 01:06:39;;;;;;;3.83;0.90;;;;;;;;;;2056253;28;20085;-48
2024/02/23 01:07:40;;;;;;;4.13;0.80;;;;;;;;;;2056808;28;20058;-46
2024/02/23 01:08:41;;;;;;;1.85;0.40;;;;;;;;;;2056019;28;20011;-47
2024/02/23 01:09:43;;;;;;;3.35;0.60;;;;;;;;;;2055998;28;20102;-48
2024/02/23 01:10:44;;;;;;;2.58;0.63;;;;;;;;;;2055916;28;20015;-47
2024/02/23 01:11:45;;;;;;;2.67;0.70;;;;;;;;;;2055755;28;20103;-47
2024/02/23 01:12:47;;;;;;;4.80;0.85;;;;;;;;;;2055816;28;20098;-47
2024/02/23 01:13:48;;;;;;;3.28;0.60;;;;;;;;;;2056474;28;20022;-51
2024/02/23 01:14:49;;;;;;;4.05;1.10;;;;;;;;;;2056445;28;20484;-54
2024/02/23 01:15:51;;;;;;;1.80;0.65;;;;;;;;;;2056600;28;20030;-53
2024/02/23 01:16:52;;;;;;;3.80;0.77;;;;;;;;;;2056291;28;20027;-53
2024/02/23 01:17:54;;;;;;;4.53;0.65;;;;;;;;;;2056489;28;20019;-51
2024/02/23 01:18:55;;;;;;;4.60;0.80;;;;;;;;;;2055705;28;20474;-53
2024/02/23 01:19:56;;;;;;;3.75;0.82;;;;;;;;;;2047730;28;20019;-53
2024/02/23 01:20:58;;;;;;;3.00;1.00;;;;;;;;;;2055956;28;20434;-51
2024/02/23 01:21:59;;;;;;;3.05;0.80;;;;;;;;;;2056434;28;20030;-52
2024/02/23 01:23:00;;;;;;;3.83;1.02;;;;;;;;;;2058005;28;20022;-53
2024/02/23 01:24:02;;;;;;;4.95;0.70;;;;;;;;;;2057437;28;20046;-49
2024/02/23 01:25:03;;;;;;;5.18;0.82;;;;;;;;;;2056521;28;20023;-54
2024/02/23 01:26:05;;;;;;;3.25;0.73;;;;;;;;;;2055730;28;20077;-48
2024/02/23 01:27:06;;;;;;;4.75;1.30;;;;;;;;;;2055814;28;20023;-49
2024/02/23 01:28:07;;;;;;;4.68;0.95;;;;;;;;;;2056624;28;20126;-48
2024/02/23 01:29:08;;;;;;;5.05;1.00;;;;;;;;;;2056627;28;20118;-47
2024/02/23 01:30:10;;;;;;;7.88;1.08;;;;;;;;;;2056415;28;20046;-47
2024/02/23 01:31:12;;;;;;;3.03;0.95;;;;;;;;;;2056601;28;20026;-48
2024/02/23 01:32:13;;;;;;;5.55;1.08;;;;;;;;;;2056511;28;20109;-48
2024/02/23 01:33:14;;;;;;;3.72;0.70;;;;;;;;;;2055669;28;20109;-47
2024/02/23 01:34:15;;;;;;;4.03;0.70;;;;;;;;;;2055888;28;20454;-49
2024/02/23 01:35:17;;;;;;;5.30;1.02;;;;;;;;;;2056634;28;20038;-48
2024/02/23 01:36:18;;;;;;;4.13;1.02;;;;;;;;;;2056365;28;20023;-47
2024/02/23 01:37:21;;;;;;;4.07;0.88;;;;;;;;;;2056609;28;20031;-48
2024/02/23 01:38:24;;;;;;;3.20;0.80;;;;;;;;;;2056308;28;20030;-48
2024/02/23 01:39:26;;;;;;;3.90;0.90;;;;;;;;;;2056598;28;20042;-47
2024/02/23 01:40:27;;;;;;;4.78;1.00;;;;;;;;;;2055904;28;20494;-47
2024/02/23 01:41:28;;;;;;;4.30;0.90;;;;;;;;;;2049605;28;20750;-48
2024/02/23 01:42:29;;;;;;;3.50;0.77;;;;;;;;;;2056279;28;20032;-49
2024/02/23 01:43:31;;;;;;;4.65;1.08;;;;;;;;;;2054165;28;20034;-48
2024/02/23 01:44:32;;;;;;;5.93;1.27;;;;;;;;;;2048465;29;20070;-48
2024/02/23 01:45:34;;;;;;;2.03;0.55;;;;;;;;;;2054336;28;20114;-50
2024/02/23 01:46:35;;;;;;;3.50;0.90;;;;;;;;;;2054262;28;20061;-48
2024/02/23 01:47:36;;;;;;;3.42;0.93;;;;;;;;;;2054072;28;20122;-48
2024/02/23 01:48:37;;;;;;;4.80;0.98;;;;;;;;;;2057274;28;20086;-47
2024/02/23 01:49:39;;;;;;;2.58;0.70;;;;;;;;;;2056944;28;20018;-48
2024/02/23 01:50:40;;;;;;;4.88;0.80;;;;;;;;;;2057714;28;20553;-49
2024/02/23 01:51:41;;;;;;;4.15;1.00;;;;;;;;;;2057893;28;20058;-48
2024/02/23 01:52:43;;;;;;;2.78;0.80;;;;;;;;;;2058003;28;20058;-49
2024/02/23 01:53:45;;;;;;;3.40;0.95;;;;;;;;;;2057419;28;20041;-47
2024/02/23 01:54:46;;;;;;;6.75;0.93;;;;;;;;;;2057677;28;20019;-50
2024/02/23 01:55:48;;;;;;;3.65;0.82;;;;;;;;;;2058222;28;20073;-48
2024/02/23 01:56:49;;;;;;;3.08;1.00;;;;;;;;;;2057190;28;20022;-49
2024/02/23 01:57:50;;;;;;;4.03;0.88;;;;;;;;;;2057345;28;20031;-47
2024/02/23 01:58:53;;;;;;;4.35;0.63;;;;;;;;;;2057019;28;20026;-47
2024/02/23 01:59:55;;;;;;;2.88;0.70;;;;;;;;;;2057293;28;20073;-48
2024/02/23 02:00:57;;;;;;;5.45;0.80;;;;;;;;;;2057907;28;20493;-49
2024/02/23 02:01:58;;;;;;;4.50;1.48;;;;;;;;;;2057549;28;20387;-49
2024/02/23 02:02:59;;;;;;;4.30;0.75;;;;;;;;;;2057263;28;20027;-49
2024/02/23 02:04:00;;;;;;;3.53;0.90;;;;;;;;;;2057026;28;20362;-48
2024/02/23 02:05:03;;;;;;;4.05;0.68;;;;;;;;;;2057059;28;20010;-48
2024/02/23 02:06:05;;;;;;;4.55;0.88;;;;;;;;;;2056809;28;20109;-48
2024/02/23 02:07:06;;;;;;;4.10;1.35;;;;;;;;;;2056907;28;20046;-48
2024/02/23 02:08:07;;;;;;;2.85;0.82;;;;;;;;;;2055839;28;20431;-48
2024/02/23 02:09:09;;;;;;;5.68;0.98;;;;;;;;;;2058631;28;20110;-48
2024/02/23 02:10:10;;;;;;;5.60;1.38;;;;;;;;;;2057722;28;20093;-49
2024/02/23 02:11:11;;;;;;;4.95;1.13;;;;;;;;;;2058500;28;20031;-48
2024/02/23 02:12:13;;;;;;;2.65;0.60;;;;;;;;;;2064917;28;20513;-49
2024/02/23 02:13:14;;;;;;;4.18;0.60;;;;;;;;;;2061194;28;20041;-49
2024/02/23 02:14:16;;;;;;;4.88;1.10;;;;;;;;;;2058182;28;20031;-47
2024/02/23 02:15:17;;;;;;;6.40;1.00;;;;;;;;;;2055351;28;20015;-48
2024/02/23 02:16:18;;;;;;;4.75;0.52;;;;;;;;;;2058437;28;20117;-48
2024/02/23 02:17:20;;;;;;;4.00;0.90;;;;;;;;;;2057840;28;20023;-48
2024/02/23 02:18:23;;;;;;;2.70;0.47;;;;;;;;;;2057751;28;20058;-48
2024/02/23 02:19:24;;;;;;;6.15;0.80;;;;;;;;;;2057518;28;20027;-48
2024/02/23 02:20:26;;;;;;;3.13;0.98;;;;;;;;;;2057641;28;20042;-48
2024/02/23 02:21:28;;;;;;;3.05;0.65;;;;;;;;;;2057914;28;20039;-48
2024/02/23 02:22:29;;;;;;;4.00;0.93;;;;;;;;;;2058335;28;20042;-47
2024/02/23 02:23:30;;;;;;;3.08;1.13;;;;;;;;;;2057201;28;20026;-49
2024/02/23 02:24:32;;;;;;;4.18;0.90;;;;;;;;;;2057895;28;20027;-48
2024/02/23 02:25:33;;;;;;;3.35;0.50;;;;;;;;;;2056601;28;20022;-47
2024/02/23 02:26:35;;;;;;;5.05;0.90;;;;;;;;;;2050130;28;20042;-47
2024/02/23 02:27:36;;;;;;;4.15;0.82;;;;;;;;;;2057831;28;20023;-49
2024/02/23 02:28:38;;;;;;;5.00;0.80;;;;;;;;;;2057419;28;20015;-49
2024/02/23 02:29:39;;;;;;;2.72;0.73;;;;;;;;;;2057738;28;20030;-48
2024/02/23 02:30:41;;;;;;;5.30;1.23;;;;;;;;;;2057010;28;20034;-48
2024/02/23 02:31:42;;;;;;;6.60;1.05;;;;;;;;;;2057681;28;20027;-49
2024/02/23 02:32:43;;;;;;;3.92;1.30;;;;;;;;;;2057769;28;20545;-47
2024/02/23 02:33:45;;;;;;;3.25;1.00;;;;;;;;;;2057393;28;20427;-48
2024/02/23 02:34:46;;;;;;;3.47;1.15;;;;;;;;;;2057384;28;20031;-47
2024/02/23 02:35:47;;;;;;;4.85;0.82;;;;;;;;;;2057106;28;20042;-47
2024/02/23 02:36:48;;;;;;;5.78;1.25;;;;;;;;;;2056840;28;20042;-48
2024/02/23 02:37:50;;;;;;;4.57;0.90;;;;;;;;;;2060742;28;20024;-48
2024/02/23 02:38:51;;;;;;;5.88;1.10;;;;;;;;;;2057673;28;20106;-49
2024/02/23 02:39:53;;;;;;;4.07;0.95;;;;;;;;;;2057380;28;20094;-48
2024/02/23 02:40:54;;;;;;;4.43;0.98;;;;;;;;;;2057001;28;20081;-49
2024/02/23 02:41:55;;;;;;;5.28;1.20;;;;;;;;;;2056679;28;20522;-48
2024/02/23 02:42:57;;;;;;;4.93;0.93;;;;;;;;;;2057465;28;20022;-48
2024/02/23 02:43:58;;;;;;;6.65;1.30;;;;;;;;;;2057456;28;20063;-48
2024/02/23 02:44:59;;;;;;;2.97;1.13;;;;;;;;;;2057303;28;20360;-48
2024/02/23 02:46:00;;;;;;;4.85;0.90;;;;;;;;;;2051734;28;20058;-47
2024/02/23 02:47:02;;;;;;;5.95;1.23;;;;;;;;;;2057486;28;20022;-47
2024/02/23 02:48:03;;;;;;;5.22;1.02;;;;;;;;;;2061127;28;20026;-49
2024/02/23 02:49:05;;;;;;;4.18;1.27;;;;;;;;;;2055512;28;20461;-48
2024/02/23 02:50:06;;;;;;;5.93;1.15;;;;;;;;;;2057227;28;20076;-47
2024/02/23 02:51:07;;;;;;;4.38;1.05;;;;;;;;;;2058337;28;20023;-47
2024/02/23 02:52:09;;;;;;;3.17;0.57;;;;;;;;;;2057505;28;20158;-49
2024/02/23 02:53:10;;;;;;;7.10;1.27;;;;;;;;;;2057600;28;20102;-48
2024/02/23 02:54:12;;;;;;;6.47;1.20;;;;;;;;;;2057205;28;20109;-47
2024/02/23 02:55:13;;;;;;;5.10;0.90;;;;;;;;;;2057210;28;20379;-48
2024/02/23 02:56:14;;;;;;;3.80;0.93;;;;;;;;;;2057387;28;20098;-48
2024/02/23 02:57:15;;;;;;;6.45;1.23;;;;;;;;;;2056724;28;20121;-48
2024/02/23 02:58:17;;;;;;;4.85;1.10;;;;;;;;;;2056731;28;20536;-49
2024/02/23 02:59:18;;;;;;;3.53;0.80;;;;;;;;;;2056987;28;20011;-49
2024/02/23 03:00:19;;;;;;;6.97;1.23;;;;;;;;;;2056725;28;20035;-47
2024/02/23 03:01:21;;;;;;;5.95;0.95;;;;;;;;;;2064731;28;20402;-47
2024/02/23 03:02:22;;;;;;;5.38;0.93;;;;;;;;;;2064455;28;20034;-48
2024/02/23 03:03:23;;;;;;;6.60;1.13;;;;;;;;;;2058818;28;20076;-48
2024/02/23 03:04:24;;;;;;;4.15;1.02;;;;;;;;;;2056732;28;20105;-48
2024/02/23 03:05:26;;;;;;;4.28;1.00;;;;;;;;;;2056399;28;20161;-49
2024/02/23 03:06:27;;;;;;;6.50;1.35;;;;;;;;;;2056880;28;20372;-48
2024/02/23 03:07:29;;;;;;;7.85;1.20;;;;;;;;;;2052388;28;20018;-47
2024/02/23 03:08:30;;;;;;;4.65;0.60;;;;;;;;;;2057436;28;20031;-47
2024/02/23 03:09:32;;;;;;;3.05;1.10;;;;;;;;;;2058229;28;20109;-49
2024/02/23 03:10:33;;;;;;;3.35;1.00;;;;;;;;;;2059818;28;20027;-48
2024/02/23 03:11:34;;;;;;;7.80;1.20;;;;;;;;;;2056527;28;20031;-48
2024/02/23 03:12:35;;;;;;;5.88;1.00;;;;;;;;;;2056649;28;20023;-48
2024/02/23 03:13:37;;;;;;;4.60;1.20;;;;;;;;;;2054347;28;20109;-48
2024/02/23 03:14:40;;;;;;;3.67;1.08;;;;;;;;;;2057322;28;20521;-48
2024/02/23 03:15:41;;;;;;;4.60;1.00;;;;;;;;;;2054600;28;20129;-48
2024/02/23 03:16:42;;;;;;;5.97;1.25;;;;;;;;;;2057235;28;20149;-47
2024/02/23 03:17:43;;;;;;;5.70;1.10;;;;;;;;;;2057353;28;20035;-48
2024/02/23 03:18:45;;;;;;;4.50;1.00;;;;;;;;;;2057253;28;20027;-48
2024/02/23 03:19:50;;;;;;;3.67;1.10;;;;;;;;;;2057392;28;20023;-49
2024/02/23 03:20:51;;;;;;;5.22;0.75;;;;;;;;;;2057436;28;20015;-48
2024/02/23 03:21:52;;;;;;;4.53;0.68;;;;;;;;;;2056936;28;20035;-48
2024/02/23 03:22:54;;;;;;;4.65;1.17;;;;;;;;;;2057204;28;20021;-48
2024/02/23 03:23:55;;;;;;;4.70;0.98;;;;;;;;;;2056571;28;20046;-47
2024/02/23 03:24:56;;;;;;;4.82;1.10;;;;;;;;;;2056465;28;20033;-48
2024/02/23 03:25:58;;;;;;;7.15;1.15;;;;;;;;;;2057201;28;20609;-47
2024/02/23 03:26:59;;;;;;;4.20;1.13;;;;;;;;;;2057197;28;20031;-49
2024/02/23 03:28:01;;;;;;;5.88;0.68;;;;;;;;;;2057360;28;20956;-47
2024/02/23 03:29:02;;;;;;;4.47;1.35;;;;;;;;;;2057214;28;20078;-48
2024/02/23 03:30:04;;;;;;;4.18;1.00;;;;;;;;;;2056616;28;20079;-47
2024/02/23 03:31:06;;;;;;;3.13;0.90;;;;;;;;;;2054913;28;20038;-48
2024/02/23 03:32:08;;;;;;;2.58;0.90;;;;;;;;;;2055497;28;20564;-47
2024/02/23 03:33:09;;;;;;;4.43;0.95;;;;;;;;;;2057070;28;20403;-47
2024/02/23 03:34:10;;;;;;;7.28;1.52;;;;;;;;;;2056369;28;20027;-48
2024/02/23 03:35:12;;;;;;;9.32;1.48;;;;;;;;;;2056481;28;20035;-52
2024/02/23 03:36:13;;;;;;;8.60;1.85;;;;;;;;;;2057691;28;20030;-51
2024/02/23 03:37:14;;;;;;;4.90;1.30;;;;;;;;;;2049201;29;20521;-53
2024/02/23 03:38:16;;;;;;;6.65;1.15;;;;;;;;;;2052540;28;20027;-55
2024/02/23 03:39:17;;;;;;;7.05;1.27;;;;;;;;;;2057285;28;20070;-54
2024/02/23 03:40:19;;;;;;;5.72;1.20;;;;;;;;;;2056379;28;20726;-53
2024/02/23 03:41:20;;;;;;;7.10;2.00;;;;;;;;;;2056243;28;20129;-54
2024/02/23 03:42:21;;;;;;;7.05;1.15;;;;;;;;;;2057402;28;20057;-54
2024/02/23 03:43:22;;;;;;;8.63;1.38;;;;;;;;;;2057054;28;20078;-52
2024/02/23 03:44:24;;;;;;;8.20;1.35;;;;;;;;;;2056868;28;20138;-54
2024/02/23 03:45:25;;;;;;;6.88;1.00;;;;;;;;;;2059646;28;20041;-53
2024/02/23 03:46:26;;;;;;;5.18;1.17;;;;;;;;;;2059806;28;20514;-53
2024/02/23 03:47:28;;;;;;;4.88;1.10;;;;;;;;;;2057270;28;20034;-54
2024/02/23 03:48:29;;;;;;;3.28;0.75;;;;;;;;;;2057123;28;20033;-53
2024/02/23 03:49:30;;;;;;;5.85;1.10;;;;;;;;;;2056607;28;20422;-53
2024/02/23 03:50:32;;;;;;;5.15;1.25;;;;;;;;;;2056468;28;20023;-53
2024/02/23 03:51:34;;;;;;;9.10;1.45;;;;;;;;;;2056438;28;20030;-52
2024/02/23 03:52:36;;;;;;;5.53;1.30;;;;;;;;;;2056286;28;20057;-53
2024/02/23 03:53:37;;;;;;;3.95;1.13;;;;;;;;;;2057213;28;20011;-54
2024/02/23 03:54:39;;;;;;;5.32;1.17;;;;;;;;;;2056311;28;20366;-53
2024/02/23 03:55:40;;;;;;;6.07;0.90;;;;;;;;;;2050968;28;20035;-54
2024/02/23 03:56:42;;;;;;;7.57;1.10;;;;;;;;;;2055981;28;20568;-53
2024/02/23 03:57:43;;;;;;;4.47;0.80;;;;;;;;;;2056782;28;20486;-50
2024/02/23 03:58:44;;;;;;;4.55;1.23;;;;;;;;;;2057135;28;20022;-53
2024/02/23 03:59:53;;;;;;;5.22;1.20;;;;;;;;;;2056288;28;20026;-52
2024/02/23 04:00:54;;;;;;;5.05;0.85;;;;;;;;;;2047750;28;20024;-53
2024/02/23 04:01:56;;;;;;;3.92;0.95;;;;;;;;;;2056416;28;20039;-53
2024/02/23 04:02:57;;;;;;;7.80;0.82;;;;;;;;;;2056210;28;20030;-52
2024/02/23 04:03:59;;;;;;;5.88;1.23;;;;;;;;;;2056189;28;20381;-53
2024/02/23 04:05:00;;;;;;;4.35;0.98;;;;;;;;;;2056664;28;20572;-51
2024/02/23 04:06:01;;;;;;;3.97;0.95;;;;;;;;;;2055905;28;20050;-51
2024/02/23 04:07:02;;;;;;;4.72;1.23;;;;;;;;;;2048286;28;20023;-52
2024/02/23 04:08:04;;;;;;;4.15;0.80;;;;;;;;;;2056178;28;20049;-49
2024/02/23 04:09:05;;;;;;;5.25;1.27;;;;;;;;;;2055691;28;20027;-50
2024/02/23 04:10:07;;;;;;;3.70;0.65;;;;;;;;;;2056994;28;20339;-54
2024/02/23 04:11:08;;;;;;;4.53;1.00;;;;;;;;;;2056471;28;20054;-54
2024/02/23 04:12:09;;;;;;;3.72;1.13;;;;;;;;;;2056551;28;20027;-47
2024/02/23 04:13:13;;;;;;;4.50;0.93;;;;;;;;;;2056971;28;20030;-46
2024/02/23 04:14:14;;;;;;;4.78;1.25;;;;;;;;;;2055398;28;20021;-49
2024/02/23 04:15:16;;;;;;;10.85;1.40;;;;;;;;;;2055109;28;20030;-47
2024/02/23 04:16:17;;;;;;;5.05;0.88;;;;;;;;;;2056214;28;20019;-48
2024/02/23 04:17:19;;;;;;;5.47;0.85;;;;;;;;;;2056046;28;20039;-48
2024/02/23 04:18:20;;;;;;;3.20;0.68;;;;;;;;;;2056888;28;20015;-47
2024/02/23 04:19:21;;;;;;;5.35;1.17;;;;;;;;;;2056908;28;20038;-48
2024/02/23 04:20:22;;;;;;;5.65;0.80;;;;;;;;;;2055952;28;20121;-46
2024/02/23 04:21:26;;;;;;;5.60;1.30;;;;;;;;;;2064430;28;20037;-48
2024/02/23 04:22:27;;;;;;;4.47;1.30;;;;;;;;;;2071519;28;20139;-48
2024/02/23 04:23:28;;;;;;;5.22;1.17;;;;;;;;;;2056720;28;20023;-47
2024/02/23 04:24:29;;;;;;;10.00;1.00;;;;;;;;;;2056967;28;20027;-47
2024/02/23 04:25:31;;;;;;;3.97;1.00;;;;;;;;;;2056608;28;20025;-46
2024/02/23 04:26:32;;;;;;;5.72;1.02;;;;;;;;;;2052313;28;20550;-48
2024/02/23 04:27:33;;;;;;;4.93;0.68;;;;;;;;;;2056877;28;20462;-52
2024/02/23 04:28:35;;;;;;;5.40;1.20;;;;;;;;;;2056485;28;20466;-51
2024/02/23 04:29:36;;;;;;;3.78;0.85;;;;;;;;;;2054924;28;20030;-50
2024/02/23 04:30:37;;;;;;;8.18;1.20;;;;;;;;;;2056850;28;20126;-54
2024/02/23 04:31:38;;;;;;;3.63;1.05;;;;;;;;;;2054668;28;20023;-54
2024/02/23 04:32:40;;;;;;;6.07;1.17;;;;;;;;;;2056623;28;20490;-50
2024/02/23 04:33:41;;;;;;;7.47;1.08;;;;;;;;;;2056902;28;20050;-53
2024/02/23 04:34:42;;;;;;;6.45;0.80;;;;;;;;;;2056654;28;20046;-53
2024/02/23 04:35:44;;;;;;;7.13;1.58;;;;;;;;;;2056962;28;20021;-53
2024/02/23 04:36:45;;;;;;;4.40;0.80;;;;;;;;;;2056601;28;20042;-52
2024/02/23 04:37:46;;;;;;;4.85;0.90;;;;;;;;;;2056467;28;20031;-48
2024/02/23 04:38:47;;;;;;;6.43;1.00;;;;;;;;;;2056954;28;20035;-52
2024/02/23 04:39:49;;;;;;;3.65;0.93;;;;;;;;;;2056785;28;20026;-54
2024/02/23 04:40:50;;;;;;;4.60;1.00;;;;;;;;;;2056643;28;20050;-53
2024/02/23 04:41:51;;;;;;;6.53;1.30;;;;;;;;;;2056823;28;20031;-52
2024/02/23 04:42:53;;;;;;;5.30;0.70;;;;;;;;;;2053149;28;20020;-53
2024/02/23 04:43:59;;;;;;;4.25;0.95;;;;;;;;;;2032683;29;20029;-53
2024/02/23 04:45:01;;;;;;;5.05;1.08;;;;;;;;;;2049116;28;20023;-54
2024/02/23 04:46:02;;;;;;;2.95;0.50;;;;;;;;;;2056258;28;20401;-53
2024/02/23 04:47:04;;;;;;;3.80;1.00;;;;;;;;;;2055835;28;20031;-52
2024/02/23 04:48:05;;;;;;;5.57;0.95;;;;;;;;;;2050416;28;20047;-52
2024/02/23 04:49:06;;;;;;;4.20;0.90;;;;;;;;;;2054692;28;20031;-53
2024/02/23 04:50:08;;;;;;;4.35;0.90;;;;;;;;;;2056497;28;20037;-48
2024/02/23 04:51:10;;;;;;;4.78;0.82;;;;;;;;;;2054572;28;20419;-47
2024/02/23 04:52:11;;;;;;;4.40;1.10;;;;;;;;;;2056062;28;20744;-46
2024/02/23 04:53:12;;;;;;;5.30;0.75;;;;;;;;;;2056610;28;20030;-46
2024/02/23 04:54:13;;;;;;;6.18;1.27;;;;;;;;;;2056883;28;20023;-46
2024/02/23 04:55:15;;;;;;;3.05;0.77;;;;;;;;;;2056038;28;20031;-47
2024/02/23 04:56:16;;;;;;;3.60;0.68;;;;;;;;;;2055734;28;20034;-46
2024/02/23 04:57:17;;;;;;;3.13;0.60;;;;;;;;;;2056065;28;20034;-46
2024/02/23 04:58:20;;;;;;;5.45;0.85;;;;;;;;;;2056625;28;20114;-46
2024/02/23 04:59:21;;;;;;;3.45;0.73;;;;;;;;;;2061444;28;20043;-45
2024/02/23 05:00:23;;;;;;;4.80;0.98;;;;;;;;;;2056467;28;20022;-46
2024/02/23 05:01:24;;;;;;;5.38;0.70;;;;;;;;;;2056430;28;20145;-48
2024/02/23 05:02:29;;;;;;;3.10;0.90;;;;;;;;;;2056591;28;20030;-46
2024/02/23 05:03:30;;;;;;;2.90;0.60;;;;;;;;;;2056609;28;20023;-46
2024/02/23 05:04:33;;;;;;;2.70;0.90;;;;;;;;;;2056585;28;20046;-46
2024/02/23 05:05:36;;;;;;;5.70;1.00;;;;;;;;;;2055806;28;20018;-46
2024/02/23 05:06:37;;;;;;;2.92;0.80;;;;;;;;;;2056021;28;20015;-46
2024/02/23 05:07:38;;;;;;;4.32;0.82;;;;;;;;;;2056574;28;20740;-48
2024/02/23 05:08:40;;;;;;;3.97;0.82;;;;;;;;;;2058498;28;20498;-48
2024/02/23 05:09:42;;;;;;;5.03;1.10;;;;;;;;;;2056830;28;20018;-46
2024/02/23 05:10:43;;;;;;;5.30;0.70;;;;;;;;;;2056445;28;20073;-46
2024/02/23 05:11:45;;;;;;;7.30;0.80;;;;;;;;;;2056393;28;20073;-45
2024/02/23 05:12:47;;;;;;;2.95;1.05;;;;;;;;;;2056443;28;20027;-46
2024/02/23 05:13:48;;;;;;;4.70;1.00;;;;;;;;;;2055654;28;20027;-49
2024/02/23 05:14:49;;;;;;;3.55;0.68;;;;;;;;;;2058587;28;20405;-49
2024/02/23 05:15:51;;;;;;;5.43;0.95;;;;;;;;;;2053182;28;20031;-48
2024/02/23 05:16:52;;;;;;;4.90;0.80;;;;;;;;;;2052886;28;20483;-48
2024/02/23 05:17:53;;;;;;;5.88;0.80;;;;;;;;;;2056598;28;20068;-49
2024/02/23 05:18:54;;;;;;;3.05;0.57;;;;;;;;;;2056760;28;20062;-48
2024/02/23 05:19:56;;;;;;;4.28;0.57;;;;;;;;;;2055679;28;20037;-48
2024/02/23 05:20:57;;;;;;;8.32;0.90;;;;;;;;;;2055772;28;20069;-48
2024/02/23 05:21:58;;;;;;;4.93;0.65;;;;;;;;;;2056209;28;20450;-48
2024/02/23 05:23:01;;;;;;;2.78;0.65;;;;;;;;;;2056872;28;20034;-46
2024/02/23 05:24:03;;;;;;;9.07;1.17;;;;;;;;;;2058013;28;20011;-47
2024/02/23 05:25:04;;;;;;;6.63;1.13;;;;;;;;;;2057946;28;20474;-48
2024/02/23 05:26:06;;;;;;;6.25;1.13;;;;;;;;;;2057016;28;20397;-46
2024/02/23 05:27:07;;;;;;;3.85;0.77;;;;;;;;;;2054394;28;20494;-45
2024/02/23 05:28:08;;;;;;;2.72;0.93;;;;;;;;;;2058171;28;20557;-46
2024/02/23 05:29:12;;;;;;;6.90;0.88;;;;;;;;;;2058019;28;20042;-47
2024/02/23 05:30:14;;;;;;;2.25;0.65;;;;;;;;;;2058148;28;20026;-46
2024/02/23 05:31:15;;;;;;;3.45;0.93;;;;;;;;;;2057964;28;20055;-46
2024/02/23 05:32:17;;;;;;;3.25;0.77;;;;;;;;;;2058063;28;20494;-46
2024/02/23 05:33:20;;;;;;;3.47;0.70;;;;;;;;;;2052999;28;20038;-47
2024/02/23 05:34:21;;;;;;;4.28;0.90;;;;;;;;;;2057695;28;20555;-47
2024/02/23 05:35:23;;;;;;;2.20;0.50;;;;;;;;;;2058097;28;20042;-49
2024/02/23 05:36:24;;;;;;;5.63;0.70;;;;;;;;;;2057930;28;20042;-48
2024/02/23 05:37:26;;;;;;;4.18;1.13;;;;;;;;;;2058059;28;20046;-48
2024/02/23 05:38:28;;;;;;;4.15;0.70;;;;;;;;;;2058140;28;20033;-48
2024/02/23 05:39:29;;;;;;;4.65;0.75;;;;;;;;;;2053154;28;20437;-48
2024/02/23 05:40:30;;;;;;;2.00;0.75;;;;;;;;;;2057821;28;20038;-52
2024/02/23 05:41:32;;;;;;;5.65;0.73;;;;;;;;;;2057846;28;20023;-52
2024/02/23 05:42:33;;;;;;;3.88;0.65;;;;;;;;;;2058099;28;20040;-53
2024/02/23 05:43:35;;;;;;;3.85;0.73;;;;;;;;;;2057958;28;20454;-54
2024/02/23 05:44:36;;;;;;;3.10;0.77;;;;;;;;;;2057068;28;20019;-53
2024/02/23 05:45:37;;;;;;;3.88;0.82;;;;;;;;;;2050254;28;20035;-53
2024/02/23 05:46:38;;;;;;;2.80;0.80;;;;;;;;;;2055090;28;20023;-52
2024/02/23 05:47:40;;;;;;;3.38;0.45;;;;;;;;;;2057278;28;20061;-52
2024/02/23 05:48:42;;;;;;;4.55;0.82;;;;;;;;;;2057287;28;20035;-53
2024/02/23 05:49:43;;;;;;;3.17;0.63;;;;;;;;;;2058032;28;20089;-53
2024/02/23 05:50:45;;;;;;;3.38;0.95;;;;;;;;;;2058269;28;20098;-53
2024/02/23 05:51:46;;;;;;;3.00;0.75;;;;;;;;;;2057890;28;20398;-54
2024/02/23 05:52:47;;;;;;;1.95;0.50;;;;;;;;;;2058170;28;20030;-53
2024/02/23 05:53:48;;;;;;;4.32;0.55;;;;;;;;;;2058141;28;20031;-52
2024/02/23 05:54:51;;;;;;;5.65;1.08;;;;;;;;;;2057855;28;20486;-54
2024/02/23 05:55:52;;;;;;;3.92;0.70;;;;;;;;;;2057894;28;20043;-53
2024/02/23 05:56:54;;;;;;;4.03;0.60;;;;;;;;;;2058017;28;20471;-52
2024/02/23 05:57:56;;;;;;;3.55;0.70;;;;;;;;;;2057868;28;20425;-54
2024/02/23 05:58:57;;;;;;;2.13;0.70;;;;;;;;;;2062093;28;20751;-51
2024/02/23 05:59:58;;;;;;;4.40;0.65;;;;;;;;;;2057670;28;20422;-53
2024/02/23 06:00:59;;;;;;;3.92;1.17;;;;;;;;;;2057683;28;20038;-52
2024/02/23 06:02:01;;;;;;;4.50;1.00;;;;;;;;;;2057992;28;20031;-52
2024/02/23 06:03:03;;;;;;;4.82;1.08;;;;;;;;;;2057229;28;20010;-47
2024/02/23 06:04:05;;;;;;;3.13;0.80;;;;;;;;;;2057966;28;20019;-51
2024/02/23 06:05:07;;;;;;;1.77;0.50;;;;;;;;;;2057945;28;20023;-46
2024/02/23 06:06:08;;;;;;;3.78;0.70;;;;;;;;;;2061539;28;20117;-46
2024/02/23 06:07:10;;;;;;;4.53;0.50;;;;;;;;;;2064747;28;20026;-46
2024/02/23 06:08:11;;;;;;;3.00;0.63;;;;;;;;;;2056823;28;20135;-51
2024/02/23 06:09:12;;;;;;;4.75;1.00;;;;;;;;;;2057834;28;20037;-49